M.izmir — 9HLE8 — position and weather

sailwx.info

Track history (hours):
 
Tides and Currents Weather Stations Pressure Air Temp Water Temp Dewpoint Dewpoint Depression Visibility Wind Speed Wind Dir Waves Ship Positions

M.izmir

Last reported at 2018-Jan-12 00:17 UTC. Time now 2018-Jan-20 17:17 UTC.
Position N 37°20' E 026°52'.
Warning: this ship's position is 8 days out of date.

Length 112 m; draft 6.2 m.

Type: Cargo ship. MMSI: 256109000.

Date/timePositionNaut miles runAvg speedWind from/ knotsBaromVisibWave heightAir tempDewpointWater temp
2018-Jan-12 00:17N 37°20' E 026°52'410.2
2018-Jan-11 23:53N 37°23' E 026°49'410.0
2018-Jan-11 23:29N 37°26' E 026°46'10 9.7
2018-Jan-11 22:27N 37°34' E 026°38'4 9.7
2018-Jan-11 22:00N 37°38' E 026°35'10 9.6
2018-Jan-11 20:54N 37°47' E 026°28'5 9.7
2018-Jan-11 20:26N 37°51' E 026°25'  
2018-Jan-09 02:28N 46°07' E 030°46'510.8
2018-Jan-09 02:01N 46°12' E 030°46'510.6
2018-Jan-09 01:30N 46°17' E 030°45'4 7.8
2018-Jan-09 01:00N 46°19' E 030°40'0 0.8
2018-Jan-09 00:29N 46°19' E 030°40'0 0.0
2018-Jan-09 00:00N 46°19' E 030°40'0 0.0
2018-Jan-08 23:30N 46°19' E 030°40'0 0.0
2018-Jan-08 23:01N 46°19' E 030°40'0 0.0
2018-Jan-08 22:29N 46°19' E 030°40'0 0.0
2018-Jan-08 22:00N 46°19' E 030°40'0 0.0
2018-Jan-08 21:30N 46°19' E 030°40'0 0.0
2018-Jan-08 21:00N 46°19' E 030°40'0 0.0
2018-Jan-08 20:30N 46°19' E 030°40'0 0.0
2018-Jan-08 20:01N 46°19' E 030°40'0 0.0
2018-Jan-08 19:30N 46°19' E 030°40'0 0.0
2018-Jan-08 19:00N 46°19' E 030°40'0 0.0
2018-Jan-08 18:30N 46°19' E 030°40'0 0.0
2018-Jan-08 18:01N 46°19' E 030°40'0 0.0
2018-Jan-08 17:30N 46°19' E 030°40'0 0.0
2018-Jan-08 17:01N 46°19' E 030°40'0 0.0
2018-Jan-08 16:30N 46°19' E 030°40'0 0.0
2018-Jan-08 16:00N 46°19' E 030°40'0 0.0
2018-Jan-08 15:30N 46°19' E 030°40'0 0.0
2018-Jan-08 15:00N 46°19' E 030°40'0 0.0
2018-Jan-08 14:29N 46°19' E 030°40'0 0.0
2018-Jan-08 14:00N 46°19' E 030°40'0 0.0
2018-Jan-08 13:29N 46°19' E 030°40'0 0.0
2018-Jan-08 13:00N 46°19' E 030°40'0 0.0
2018-Jan-08 12:29N 46°19' E 030°40'0 0.0
2018-Jan-08 12:00N 46°19' E 030°40'0 0.0
2018-Jan-08 11:29N 46°19' E 030°40'0 0.0
2018-Jan-08 11:01N 46°19' E 030°40'0 0.0
2018-Jan-08 10:29N 46°19' E 030°40'0 0.0
2018-Jan-08 10:00N 46°19' E 030°40'0 0.0
2018-Jan-08 09:29N 46°19' E 030°40'0 0.0
2018-Jan-08 09:01N 46°19' E 030°40'0 0.0
2018-Jan-08 08:30N 46°19' E 030°40'0 0.0
2018-Jan-08 08:01N 46°19' E 030°40'0 0.0
2018-Jan-08 07:29N 46°19' E 030°40'0 0.0
2018-Jan-08 07:01N 46°19' E 030°40'0 0.0
2018-Jan-08 06:29N 46°19' E 030°40'0 0.0
2018-Jan-08 06:01N 46°19' E 030°40'0 0.0
2018-Jan-08 05:30N 46°19' E 030°40'0 0.0
2018-Jan-08 05:00N 46°19' E 030°40'0 0.0
2018-Jan-08 04:29N 46°19' E 030°40'0 0.0
2018-Jan-08 04:01N 46°19' E 030°40'0 0.0
2018-Jan-08 03:30N 46°19' E 030°40'0 0.0
2018-Jan-08 03:00N 46°19' E 030°40'0 0.0
2018-Jan-08 02:30N 46°19' E 030°40'0 0.0
2018-Jan-08 02:00N 46°19' E 030°40'0 0.0
2018-Jan-08 01:00N 46°19' E 030°40'0 0.0
2018-Jan-08 00:31N 46°19' E 030°40'0 0.0
2018-Jan-08 00:00N 46°19' E 030°40'0 0.0
2018-Jan-07 23:31N 46°19' E 030°40'0 0.0
2018-Jan-07 23:00N 46°19' E 030°40'0 0.0
2018-Jan-07 22:30N 46°19' E 030°40'0 0.0
2018-Jan-07 21:59N 46°19' E 030°40'0 0.0
2018-Jan-07 21:31N 46°19' E 030°40'0 0.0
2018-Jan-07 21:00N 46°19' E 030°40'0 0.0
2018-Jan-07 20:30N 46°19' E 030°40'0 0.0
2018-Jan-07 20:00N 46°19' E 030°40'0 0.0
2018-Jan-07 19:31N 46°19' E 030°40'0 0.0
2018-Jan-07 19:00N 46°19' E 030°40'0 0.0
2018-Jan-07 18:31N 46°19' E 030°40'0 0.0
2018-Jan-07 18:00N 46°19' E 030°40'0 0.0
2018-Jan-07 17:31N 46°19' E 030°40'0 0.0
2018-Jan-07 17:00N 46°19' E 030°40'0 0.0
2018-Jan-07 16:30N 46°19' E 030°40'0 0.0
2018-Jan-07 16:00N 46°19' E 030°40'0 0.0
2018-Jan-07 15:30N 46°19' E 030°40'0 0.0
2018-Jan-07 15:00N 46°19' E 030°40'0 0.0
2018-Jan-07 14:30N 46°19' E 030°40'0 0.0
2018-Jan-07 13:59N 46°19' E 030°40'0 0.0
2018-Jan-07 13:30N 46°19' E 030°40'0 0.0
2018-Jan-07 12:59N 46°19' E 030°40'0 0.0
2018-Jan-07 12:30N 46°19' E 030°40'0 0.0
2018-Jan-07 12:00N 46°19' E 030°40'0 0.0
2018-Jan-07 11:31N 46°19' E 030°40'0 0.0
2018-Jan-07 11:00N 46°19' E 030°40'0 0.0
2018-Jan-07 10:30N 46°19' E 030°40'0 0.0
2018-Jan-07 09:59N 46°19' E 030°40'0 0.0
2018-Jan-07 09:30N 46°19' E 030°40'0 0.0
2018-Jan-07 09:00N 46°19' E 030°40'0 0.0
2018-Jan-07 08:31N 46°19' E 030°40'0 0.0
2018-Jan-07 08:00N 46°19' E 030°40'0 0.0
2018-Jan-07 07:31N 46°19' E 030°40'0 0.0
2018-Jan-07 07:00N 46°19' E 030°40'0 0.0
2018-Jan-07 06:30N 46°19' E 030°40'0 0.0
2018-Jan-07 05:59N 46°19' E 030°40'0 0.0
2018-Jan-07 05:30N 46°19' E 030°40'0 0.0
2018-Jan-07 04:59N 46°19' E 030°40'0 0.0
2018-Jan-07 04:31N 46°19' E 030°40'0 0.0
2018-Jan-07 03:59N 46°19' E 030°40'0 0.0
2018-Jan-07 03:31N 46°19' E 030°40'0 0.0
2018-Jan-07 02:59N 46°19' E 030°40'0 0.0
2018-Jan-07 02:30N 46°19' E 030°40'0 0.0
2018-Jan-07 02:00N 46°19' E 030°40'0 0.0
2018-Jan-07 01:30N 46°19' E 030°40'0 0.0
2018-Jan-07 00:31N 46°19' E 030°40'0 0.0
2018-Jan-06 23:59N 46°19' E 030°40'0 0.0
2018-Jan-06 23:30N 46°19' E 030°40'0 0.0
2018-Jan-06 22:59N 46°19' E 030°40'0 0.0
2018-Jan-06 22:30N 46°19' E 030°40'0 0.0
2018-Jan-06 21:59N 46°19' E 030°40'0 0.0
2018-Jan-06 21:30N 46°19' E 030°40'0 0.0
2018-Jan-06 21:01N 46°19' E 030°40'0 0.0
2018-Jan-06 20:30N 46°19' E 030°40'0 0.0
2018-Jan-06 20:00N 46°19' E 030°40'0 0.0
2018-Jan-06 19:30N 46°19' E 030°40'0 0.0
2018-Jan-06 19:00N 46°19' E 030°40'0 0.0
2018-Jan-06 18:31N 46°19' E 030°40'0 0.0
2018-Jan-06 18:01N 46°19' E 030°40'0 0.0
2018-Jan-06 17:30N 46°19' E 030°40'0 0.0
2018-Jan-06 17:01N 46°19' E 030°40'0 0.0
2018-Jan-06 16:30N 46°19' E 030°40'0 0.0
2018-Jan-06 16:00N 46°19' E 030°40'0 0.0
2018-Jan-06 15:30N 46°19' E 030°40'0 0.0
2018-Jan-06 15:01N 46°19' E 030°40'0 0.0
2018-Jan-06 14:29N 46°19' E 030°40'0 0.0
2018-Jan-06 14:01N 46°19' E 030°40'0 0.0
2018-Jan-06 13:30N 46°19' E 030°40'0 0.0
2018-Jan-06 13:01N 46°19' E 030°40'0 0.0
2018-Jan-06 12:29N 46°19' E 030°40'0 0.0
2018-Jan-06 12:00N 46°19' E 030°40'0 0.0
2018-Jan-06 11:29N 46°19' E 030°40'0 0.0
2018-Jan-06 11:00N 46°19' E 030°40'0 0.0
2018-Jan-06 10:30N 46°19' E 030°40'0 0.0
2018-Jan-06 10:00N 46°19' E 030°40'0 0.0
2018-Jan-06 09:30N 46°19' E 030°40'0 0.0
2018-Jan-06 09:00N 46°19' E 030°40'0 0.0
2018-Jan-06 08:30N 46°19' E 030°40'0 0.0
2018-Jan-06 08:00N 46°19' E 030°40'0 0.0
2018-Jan-06 07:29N 46°19' E 030°40'0 0.0
2018-Jan-06 07:01N 46°19' E 030°40'0 0.0
2018-Jan-06 06:29N 46°19' E 030°40'0 0.0
2018-Jan-06 06:01N 46°19' E 030°40'0 0.0
2018-Jan-06 04:59N 46°19' E 030°40'1 1.4
2018-Jan-06 04:31N 46°19' E 030°41'3 5.2
2018-Jan-06 03:59N 46°17' E 030°43'1 2.6
2018-Jan-06 03:30N 46°16' E 030°43'0 0.0
2018-Jan-06 02:59N 46°16' E 030°43'0 0.0
2018-Jan-06 02:31N 46°16' E 030°43'0 0.0
2018-Jan-06 01:59N 46°16' E 030°43'0 0.0
2018-Jan-06 01:30N 46°16' E 030°43'0 0.0
2018-Jan-06 00:59N 46°16' E 030°43'0 0.1
2018-Jan-06 00:31N 46°16' E 030°43'0 0.0
2018-Jan-05 23:59N 46°16' E 030°43'0 0.0
2018-Jan-05 23:31N 46°16' E 030°43'0 0.3
2018-Jan-05 22:59N 46°16' E 030°43'0 0.0
2018-Jan-05 22:31N 46°16' E 030°43'0 0.0
2018-Jan-05 21:59N 46°16' E 030°43'0 0.0
2018-Jan-05 21:30N 46°16' E 030°43'0 0.0
2018-Jan-05 21:00N 46°16' E 030°43'0 0.0
2018-Jan-05 20:30N 46°16' E 030°43'0 0.0
2018-Jan-05 20:00N 46°16' E 030°43'0 0.0
2018-Jan-05 19:31N 46°16' E 030°43'0 0.0
2018-Jan-05 19:00N 46°16' E 030°43'0 0.7
2018-Jan-05 18:31N 46°16' E 030°44'510.0
2018-Jan-05 17:59N 46°10' E 030°45'510.9
2018-Jan-05 17:31N 46°05' E 030°46'711.0
2018-Jan-05 16:52N 45°58' E 030°45'  
2018-Jan-02 22:11N 37°50' E 024°35'211.0
2018-Jan-02 22:01N 37°49' E 024°35'611.2
2018-Jan-02 21:30N 37°43' E 024°32'611.5
2018-Jan-02 21:01N 37°38' E 024°29'611.2
2018-Jan-02 20:31N 37°34' E 024°25'511.0
2018-Jan-02 20:01N 37°30' E 024°20'611.2
2018-Jan-02 19:31N 37°26' E 024°15'611.3
2018-Jan-02 19:00N 37°21' E 024°10'611.3
2018-Jan-02 18:31N 37°17' E 024°06'611.5
2018-Jan-02 18:01N 37°13' E 024°01'611.1
2018-Jan-02 17:31N 37°09' E 023°57'611.1
2018-Jan-02 17:01N 37°04' E 023°52'611.6
2018-Jan-02 16:30N 36°60' E 023°47'1111.6
2018-Jan-02 15:35N 36°52' E 023°39'  
Track history (hours):
 
Tides and Currents Weather Stations Pressure Air Temp Water Temp Dewpoint Dewpoint Depression Visibility Wind Speed Wind Dir Waves Ship Positions

M.izmir

Last reported at 2018-Jan-12 00:17 UTC. Time now 2018-Jan-20 17:17 UTC.
Position N 37°20' E 026°52'.
Warning: this ship's position is 8 days out of date.

Length 112 m; draft 6.2 m.

Type: Cargo ship. MMSI: 256109000.

Date/timePositionNaut miles runAvg speedWind from/ knotsBaromVisibWave heightAir tempDewpointWater temp
2018-Jan-12 00:17N 37°20' E 026°52'410.2
2018-Jan-11 23:53N 37°23' E 026°49'410.0
2018-Jan-11 23:29N 37°26' E 026°46'10 9.7
2018-Jan-11 22:27N 37°34' E 026°38'4 9.7
2018-Jan-11 22:00N 37°38' E 026°35'10 9.6
2018-Jan-11 20:54N 37°47' E 026°28'5 9.7
2018-Jan-11 20:26N 37°51' E 026°25'  
2018-Jan-09 02:28N 46°07' E 030°46'510.8
2018-Jan-09 02:01N 46°12' E 030°46'510.6
2018-Jan-09 01:30N 46°17' E 030°45'4 7.8
2018-Jan-09 01:00N 46°19' E 030°40'0 0.8
2018-Jan-09 00:29N 46°19' E 030°40'0 0.0
2018-Jan-09 00:00N 46°19' E 030°40'0 0.0
2018-Jan-08 23:30N 46°19' E 030°40'0 0.0
2018-Jan-08 23:01N 46°19' E 030°40'0 0.0
2018-Jan-08 22:29N 46°19' E 030°40'0 0.0
2018-Jan-08 22:00N 46°19' E 030°40'0 0.0
2018-Jan-08 21:30N 46°19' E 030°40'0 0.0
2018-Jan-08 21:00N 46°19' E 030°40'0 0.0
2018-Jan-08 20:30N 46°19' E 030°40'0 0.0
2018-Jan-08 20:01N 46°19' E 030°40'0 0.0
2018-Jan-08 19:30N 46°19' E 030°40'0 0.0
2018-Jan-08 19:00N 46°19' E 030°40'0 0.0
2018-Jan-08 18:30N 46°19' E 030°40'0 0.0
2018-Jan-08 18:01N 46°19' E 030°40'0 0.0
2018-Jan-08 17:30N 46°19' E 030°40'0 0.0
2018-Jan-08 17:01N 46°19' E 030°40'0 0.0
2018-Jan-08 16:30N 46°19' E 030°40'0 0.0
2018-Jan-08 16:00N 46°19' E 030°40'0 0.0
2018-Jan-08 15:30N 46°19' E 030°40'0 0.0
2018-Jan-08 15:00N 46°19' E 030°40'0 0.0
2018-Jan-08 14:29N 46°19' E 030°40'0 0.0
2018-Jan-08 14:00N 46°19' E 030°40'0 0.0
2018-Jan-08 13:29N 46°19' E 030°40'0 0.0
2018-Jan-08 13:00N 46°19' E 030°40'0 0.0
2018-Jan-08 12:29N 46°19' E 030°40'0 0.0
2018-Jan-08 12:00N 46°19' E 030°40'0 0.0
2018-Jan-08 11:29N 46°19' E 030°40'0 0.0
2018-Jan-08 11:01N 46°19' E 030°40'0 0.0
2018-Jan-08 10:29N 46°19' E 030°40'0 0.0
2018-Jan-08 10:00N 46°19' E 030°40'0 0.0
2018-Jan-08 09:29N 46°19' E 030°40'0 0.0
2018-Jan-08 09:01N 46°19' E 030°40'0 0.0
2018-Jan-08 08:30N 46°19' E 030°40'0 0.0
2018-Jan-08 08:01N 46°19' E 030°40'0 0.0
2018-Jan-08 07:29N 46°19' E 030°40'0 0.0
2018-Jan-08 07:01N 46°19' E 030°40'0 0.0
2018-Jan-08 06:29N 46°19' E 030°40'0 0.0
2018-Jan-08 06:01N 46°19' E 030°40'0 0.0
2018-Jan-08 05:30N 46°19' E 030°40'0 0.0
2018-Jan-08 05:00N 46°19' E 030°40'0 0.0
2018-Jan-08 04:29N 46°19' E 030°40'0 0.0
2018-Jan-08 04:01N 46°19' E 030°40'0 0.0
2018-Jan-08 03:30N 46°19' E 030°40'0 0.0
2018-Jan-08 03:00N 46°19' E 030°40'0 0.0
2018-Jan-08 02:30N 46°19' E 030°40'0 0.0
2018-Jan-08 02:00N 46°19' E 030°40'0 0.0
2018-Jan-08 01:00N 46°19' E 030°40'0 0.0
2018-Jan-08 00:31N 46°19' E 030°40'0 0.0
2018-Jan-08 00:00N 46°19' E 030°40'0 0.0
2018-Jan-07 23:31N 46°19' E 030°40'0 0.0
2018-Jan-07 23:00N 46°19' E 030°40'0 0.0
2018-Jan-07 22:30N 46°19' E 030°40'0 0.0
2018-Jan-07 21:59N 46°19' E 030°40'0 0.0
2018-Jan-07 21:31N 46°19' E 030°40'0 0.0
2018-Jan-07 21:00N 46°19' E 030°40'0 0.0
2018-Jan-07 20:30N 46°19' E 030°40'0 0.0
2018-Jan-07 20:00N 46°19' E 030°40'0 0.0
2018-Jan-07 19:31N 46°19' E 030°40'0 0.0
2018-Jan-07 19:00N 46°19' E 030°40'0 0.0
2018-Jan-07 18:31N 46°19' E 030°40'0 0.0
2018-Jan-07 18:00N 46°19' E 030°40'0 0.0
2018-Jan-07 17:31N 46°19' E 030°40'0 0.0
2018-Jan-07 17:00N 46°19' E 030°40'0 0.0
2018-Jan-07 16:30N 46°19' E 030°40'0 0.0
2018-Jan-07 16:00N 46°19' E 030°40'0 0.0
2018-Jan-07 15:30N 46°19' E 030°40'0 0.0
2018-Jan-07 15:00N 46°19' E 030°40'0 0.0
2018-Jan-07 14:30N 46°19' E 030°40'0 0.0
2018-Jan-07 13:59N 46°19' E 030°40'0 0.0
2018-Jan-07 13:30N 46°19' E 030°40'0 0.0
2018-Jan-07 12:59N 46°19' E 030°40'0 0.0
2018-Jan-07 12:30N 46°19' E 030°40'0 0.0
2018-Jan-07 12:00N 46°19' E 030°40'0 0.0
2018-Jan-07 11:31N 46°19' E 030°40'0 0.0
2018-Jan-07 11:00N 46°19' E 030°40'0 0.0
2018-Jan-07 10:30N 46°19' E 030°40'0 0.0
2018-Jan-07 09:59N 46°19' E 030°40'0 0.0
2018-Jan-07 09:30N 46°19' E 030°40'0 0.0
2018-Jan-07 09:00N 46°19' E 030°40'0 0.0
2018-Jan-07 08:31N 46°19' E 030°40'0 0.0
2018-Jan-07 08:00N 46°19' E 030°40'0 0.0
2018-Jan-07 07:31N 46°19' E 030°40'0 0.0
2018-Jan-07 07:00N 46°19' E 030°40'0 0.0
2018-Jan-07 06:30N 46°19' E 030°40'0 0.0
2018-Jan-07 05:59N 46°19' E 030°40'0 0.0
2018-Jan-07 05:30N 46°19' E 030°40'0 0.0
2018-Jan-07 04:59N 46°19' E 030°40'0 0.0
2018-Jan-07 04:31N 46°19' E 030°40'0 0.0
2018-Jan-07 03:59N 46°19' E 030°40'0 0.0
2018-Jan-07 03:31N 46°19' E 030°40'0 0.0
2018-Jan-07 02:59N 46°19' E 030°40'0 0.0
2018-Jan-07 02:30N 46°19' E 030°40'0 0.0
2018-Jan-07 02:00N 46°19' E 030°40'0 0.0
2018-Jan-07 01:30N 46°19' E 030°40'0 0.0
2018-Jan-07 00:31N 46°19' E 030°40'0 0.0
2018-Jan-06 23:59N 46°19' E 030°40'0 0.0
2018-Jan-06 23:30N 46°19' E 030°40'0 0.0
2018-Jan-06 22:59N 46°19' E 030°40'0 0.0
2018-Jan-06 22:30N 46°19' E 030°40'0 0.0
2018-Jan-06 21:59N 46°19' E 030°40'0 0.0
2018-Jan-06 21:30N 46°19' E 030°40'0 0.0
2018-Jan-06 21:01N 46°19' E 030°40'0 0.0
2018-Jan-06 20:30N 46°19' E 030°40'0 0.0
2018-Jan-06 20:00N 46°19' E 030°40'0 0.0
2018-Jan-06 19:30N 46°19' E 030°40'0 0.0
2018-Jan-06 19:00N 46°19' E 030°40'0 0.0
2018-Jan-06 18:31N 46°19' E 030°40'0 0.0
2018-Jan-06 18:01N 46°19' E 030°40'0 0.0
2018-Jan-06 17:30N 46°19' E 030°40'0 0.0
2018-Jan-06 17:01N 46°19' E 030°40'0 0.0
2018-Jan-06 16:30N 46°19' E 030°40'0 0.0
2018-Jan-06 16:00N 46°19' E 030°40'0 0.0
2018-Jan-06 15:30N 46°19' E 030°40'0 0.0
2018-Jan-06 15:01N 46°19' E 030°40'0 0.0
2018-Jan-06 14:29N 46°19' E 030°40'0 0.0
2018-Jan-06 14:01N 46°19' E 030°40'0 0.0
2018-Jan-06 13:30N 46°19' E 030°40'0 0.0
2018-Jan-06 13:01N 46°19' E 030°40'0 0.0
2018-Jan-06 12:29N 46°19' E 030°40'0 0.0
2018-Jan-06 12:00N 46°19' E 030°40'0 0.0
2018-Jan-06 11:29N 46°19' E 030°40'0 0.0
2018-Jan-06 11:00N 46°19' E 030°40'0 0.0
2018-Jan-06 10:30N 46°19' E 030°40'0 0.0
2018-Jan-06 10:00N 46°19' E 030°40'0 0.0
2018-Jan-06 09:30N 46°19' E 030°40'0 0.0
2018-Jan-06 09:00N 46°19' E 030°40'0 0.0
2018-Jan-06 08:30N 46°19' E 030°40'0 0.0
2018-Jan-06 08:00N 46°19' E 030°40'0 0.0
2018-Jan-06 07:29N 46°19' E 030°40'0 0.0
2018-Jan-06 07:01N 46°19' E 030°40'0 0.0
2018-Jan-06 06:29N 46°19' E 030°40'0 0.0
2018-Jan-06 06:01N 46°19' E 030°40'0 0.0
2018-Jan-06 04:59N 46°19' E 030°40'1 1.4
2018-Jan-06 04:31N 46°19' E 030°41'3 5.2
2018-Jan-06 03:59N 46°17' E 030°43'1 2.6
2018-Jan-06 03:30N 46°16' E 030°43'0 0.0
2018-Jan-06 02:59N 46°16' E 030°43'0 0.0
2018-Jan-06 02:31N 46°16' E 030°43'0 0.0
2018-Jan-06 01:59N 46°16' E 030°43'0 0.0
2018-Jan-06 01:30N 46°16' E 030°43'0 0.0
2018-Jan-06 00:59N 46°16' E 030°43'0 0.1
2018-Jan-06 00:31N 46°16' E 030°43'0 0.0
2018-Jan-05 23:59N 46°16' E 030°43'0 0.0
2018-Jan-05 23:31N 46°16' E 030°43'0 0.3
2018-Jan-05 22:59N 46°16' E 030°43'0 0.0
2018-Jan-05 22:31N 46°16' E 030°43'0 0.0
2018-Jan-05 21:59N 46°16' E 030°43'0 0.0
2018-Jan-05 21:30N 46°16' E 030°43'0 0.0
2018-Jan-05 21:00N 46°16' E 030°43'0 0.0
2018-Jan-05 20:30N 46°16' E 030°43'0 0.0
2018-Jan-05 20:00N 46°16' E 030°43'0 0.0
2018-Jan-05 19:31N 46°16' E 030°43'0 0.0
2018-Jan-05 19:00N 46°16' E 030°43'0 0.7
2018-Jan-05 18:31N 46°16' E 030°44'510.0
2018-Jan-05 17:59N 46°10' E 030°45'510.9
2018-Jan-05 17:31N 46°05' E 030°46'711.0
2018-Jan-05 16:52N 45°58' E 030°45'  
2018-Jan-02 22:11N 37°50' E 024°35'211.0
2018-Jan-02 22:01N 37°49' E 024°35'611.2
2018-Jan-02 21:30N 37°43' E 024°32'611.5
2018-Jan-02 21:01N 37°38' E 024°29'611.2
2018-Jan-02 20:31N 37°34' E 024°25'511.0
2018-Jan-02 20:01N 37°30' E 024°20'611.2
2018-Jan-02 19:31N 37°26' E 024°15'611.3
2018-Jan-02 19:00N 37°21' E 024°10'611.3
2018-Jan-02 18:31N 37°17' E 024°06'611.5
2018-Jan-02 18:01N 37°13' E 024°01'611.1
2018-Jan-02 17:31N 37°09' E 023°57'611.1
2018-Jan-02 17:01N 37°04' E 023°52'611.6
2018-Jan-02 16:30N 36°60' E 023°47'1111.6
2018-Jan-02 15:35N 36°52' E 023°39'  

Dump ship's entire track history